Time;durP1;ratioP1;P1;durP2;ratioP2;P2;SDS_P1;SDS_P2;PMS_P1;PMS_P2;Temp;Humidity;BMP_temperature;BMP_pressure;BME280_temperature;BME280_humidity;BME280_pressure;Samples;Min_cycle;Max_cycle;Signal;HPM_P1;HPM_P2
2023/04/17 00:00:18;;;;;;;1.35;0.98;;;10.30;99.90;;;;;;5112933;28;20240;-72
2023/04/17 00:02:45;;;;;;;1.80;0.90;;;10.20;99.90;;;;;;5112511;28;20241;-72
2023/04/17 00:05:12;;;;;;;1.23;1.00;;;10.10;99.90;;;;;;5112334;28;20236;-72
2023/04/17 00:07:40;;;;;;;1.45;1.00;;;10.10;99.90;;;;;;5112384;28;20257;-72
2023/04/17 00:10:08;;;;;;;1.08;0.80;;;10.10;99.90;;;;;;5112219;28;20681;-72
2023/04/17 00:12:35;;;;;;;1.43;0.90;;;10.20;99.90;;;;;;5112203;28;20228;-72
2023/04/17 00:15:03;;;;;;;3.58;1.00;;;10.30;99.90;;;;;;5112657;28;20230;-73
2023/04/17 00:17:31;;;;;;;1.95;0.90;;;10.30;99.90;;;;;;5112072;28;20200;-73
2023/04/17 00:19:58;;;;;;;1.90;1.25;;;10.10;99.90;;;;;;5112069;28;20624;-73
2023/04/17 00:22:25;;;;;;;3.53;0.90;;;10.10;99.90;;;;;;5112335;28;20232;-72
2023/04/17 00:24:52;;;;;;;1.70;1.13;;;10.00;99.90;;;;;;5112469;28;20643;-73
2023/04/17 00:27:19;;;;;;;1.63;1.10;;;9.90;99.90;;;;;;5112508;28;20248;-71
2023/04/17 00:29:46;;;;;;;2.53;1.67;;;9.80;99.90;;;;;;5111859;28;20237;-71
2023/04/17 00:32:12;;;;;;;1.90;1.35;;;9.80;99.90;;;;;;5112203;28;20275;-71
2023/04/17 00:34:41;;;;;;;1.83;1.57;;;9.60;99.90;;;;;;5111856;28;20240;-71
2023/04/17 00:37:08;;;;;;;3.83;1.33;;;9.50;99.90;;;;;;5112069;28;20265;-71
2023/04/17 00:39:34;;;;;;;2.33;1.77;;;9.60;99.90;;;;;;5111647;28;20262;-71
2023/04/17 00:42:02;;;;;;;1.20;1.10;;;9.60;99.90;;;;;;5111855;28;20695;-71
2023/04/17 00:44:29;;;;;;;1.10;1.00;;;9.60;99.90;;;;;;5111583;28;20212;-71
2023/04/17 00:46:56;;;;;;;2.67;1.00;;;9.60;99.90;;;;;;5111522;28;20204;-72
2023/04/17 00:49:24;;;;;;;0.90;0.90;;;9.60;99.90;;;;;;5111745;28;20258;-72
2023/04/17 00:51:53;;;;;;;1.57;1.17;;;9.50;99.90;;;;;;5112008;28;20695;-72
2023/04/17 00:54:22;;;;;;;1.47;1.37;;;9.50;99.90;;;;;;5111974;28;20664;-72
2023/04/17 00:56:51;;;;;;;2.53;1.93;;;9.40;99.90;;;;;;5111507;28;20277;-72
2023/04/17 00:59:18;;;;;;;2.97;2.53;;;9.40;99.90;;;;;;5111699;28;20564;-72
2023/04/17 01:01:45;;;;;;;3.13;2.83;;;9.20;99.90;;;;;;5111281;28;20247;-72
2023/04/17 01:04:12;;;;;;;2.80;2.60;;;9.00;99.90;;;;;;5111359;28;20672;-72
2023/04/17 01:06:39;;;;;;;4.50;3.50;;;8.70;99.90;;;;;;5110991;28;20209;-72
2023/04/17 01:09:08;;;;;;;4.10;3.30;;;8.80;99.90;;;;;;5111738;28;20240;-72
2023/04/17 01:11:35;;;;;;;5.33;4.57;;;8.80;99.90;;;;;;5111010;28;20273;-72
2023/04/17 01:14:02;;;;;;;5.30;4.80;;;8.90;99.90;;;;;;5111493;28;20201;-72
2023/04/17 01:16:29;;;;;;;6.50;3.73;;;8.80;99.90;;;;;;5110936;28;20328;-72
2023/04/17 01:18:56;;;;;;;7.03;4.97;;;8.70;99.90;;;;;;5111166;28;20201;-72
2023/04/17 01:21:23;;;;;;;5.67;4.03;;;8.60;99.90;;;;;;5111992;28;20228;-72
2023/04/17 01:23:51;;;;;;;7.13;4.50;;;8.60;99.90;;;;;;5111688;28;20736;-73
2023/04/17 01:26:21;;;;;;;4.90;4.37;;;8.60;99.90;;;;;;5111314;28;20686;-72
2023/04/17 01:28:55;;;;;;;3.93;3.43;;;8.60;99.90;;;;;;5111076;28;20228;-72
2023/04/17 01:31:22;;;;;;;3.97;3.57;;;8.60;99.90;;;;;;5111137;28;20702;-73
2023/04/17 01:33:50;;;;;;;5.17;4.17;;;8.60;99.90;;;;;;5111779;28;20258;-73
2023/04/17 01:36:17;;;;;;;3.83;3.30;;;8.60;99.90;;;;;;5111237;28;20699;-73
2023/04/17 01:38:44;;;;;;;3.90;3.60;;;8.50;99.90;;;;;;5110796;28;20201;-72
2023/04/17 01:41:11;;;;;;;2.80;2.60;;;8.40;99.90;;;;;;5111072;28;20255;-72
2023/04/17 01:43:41;;;;;;;5.97;2.20;;;7.90;99.90;;;;;;5110897;28;20201;-72
2023/04/17 01:46:08;;;;;;;1.87;1.47;;;8.20;99.90;;;;;;5110899;28;20676;-72
2023/04/17 01:48:36;;;;;;;2.93;2.67;;;8.10;99.90;;;;;;5110720;28;20240;-72
2023/04/17 01:51:03;;;;;;;5.23;3.30;;;8.10;99.90;;;;;;5111207;28;20260;-72
2023/04/17 01:53:30;;;;;;;3.93;2.53;;;8.00;99.90;;;;;;5110627;28;20237;-72
2023/04/17 01:55:57;;;;;;;2.60;2.20;;;7.80;99.90;;;;;;5111150;28;20229;-72
2023/04/17 01:58:24;;;;;;;4.07;2.40;;;7.70;99.90;;;;;;5111747;28;20282;-73
2023/04/17 02:00:53;;;;;;;2.43;2.23;;;7.80;99.90;;;;;;5115420;28;20240;-73
2023/04/17 02:03:19;;;;;;;3.30;2.23;;;8.00;99.90;;;;;;5115146;28;20291;-73
2023/04/17 02:05:47;;;;;;;3.17;2.80;;;8.00;99.90;;;;;;5114633;28;20243;-73
2023/04/17 02:08:14;;;;;;;5.33;2.57;;;7.90;99.90;;;;;;5115034;28;20240;-73
2023/04/17 02:10:41;;;;;;;4.17;3.70;;;8.00;99.90;;;;;;5114178;28;20684;-72
2023/04/17 02:13:08;;;;;;;2.70;2.27;;;7.90;99.90;;;;;;5114704;28;20207;-72
2023/04/17 02:15:36;;;;;;;4.60;2.00;;;7.80;99.90;;;;;;5114219;28;20258;-72
2023/04/17 02:18:05;;;;;;;4.67;2.00;;;7.90;99.90;;;;;;5114887;28;20243;-73
2023/04/17 02:20:32;;;;;;;2.27;1.80;;;8.00;99.90;;;;;;5114377;28;20665;-73
2023/04/17 02:23:00;;;;;;;4.23;2.00;;;8.00;99.90;;;;;;5114766;28;20228;-73
2023/04/17 02:25:27;;;;;;;2.30;2.10;;;8.00;99.90;;;;;;5114255;28;20245;-73
2023/04/17 02:27:55;;;;;;;2.23;2.03;;;8.00;99.90;;;;;;5115150;28;20200;-72
2023/04/17 02:30:22;;;;;;;1.97;1.83;;;8.00;99.90;;;;;;5114714;28;20200;-73
2023/04/17 02:32:51;;;;;;;3.53;1.83;;;8.00;99.90;;;;;;5114191;28;20264;-72
2023/04/17 02:35:21;;;;;;;3.90;2.17;;;8.00;99.90;;;;;;5114360;28;20204;-72
2023/04/17 02:37:48;;;;;;;2.67;2.47;;;8.00;99.90;;;;;;5114167;28;20235;-73
2023/04/17 02:40:15;;;;;;;4.17;1.60;;;8.00;99.90;;;;;;5114374;28;20664;-72
2023/04/17 02:42:42;;;;;;;4.00;1.60;;;7.90;99.90;;;;;;5113777;28;20622;-72
2023/04/17 02:45:10;;;;;;;3.47;2.70;;;7.80;99.90;;;;;;5114212;28;20236;-72
2023/04/17 02:47:37;;;;;;;2.80;1.93;;;7.80;99.90;;;;;;5113788;28;20201;-72
2023/04/17 02:50:06;;;;;;;2.60;2.30;;;7.80;99.90;;;;;;5114200;28;20646;-72
2023/04/17 02:52:34;;;;;;;1.80;1.60;;;7.80;99.90;;;;;;5113789;28;20260;-73
2023/04/17 02:55:01;;;;;;;4.17;2.47;;;7.70;99.90;;;;;;5114076;28;20237;-72
2023/04/17 02:57:28;;;;;;;2.50;2.00;;;7.60;99.90;;;;;;5113884;28;20250;-72
2023/04/17 02:59:55;;;;;;;2.07;1.90;;;7.50;99.90;;;;;;5113850;28;20226;-72
2023/04/17 03:02:22;;;;;;;2.07;1.63;;;7.50;99.90;;;;;;5114238;28;20204;-73
2023/04/17 03:04:49;;;;;;;4.03;1.83;;;7.60;99.90;;;;;;5113598;28;20201;-72
2023/04/17 03:07:18;;;;;;;4.00;1.63;;;7.60;99.90;;;;;;5113923;28;20707;-72
2023/04/17 03:09:47;;;;;;;2.20;2.00;;;7.50;99.90;;;;;;5113230;28;20720;-72
2023/04/17 03:12:14;;;;;;;5.40;2.60;;;7.60;99.90;;;;;;5112869;28;20272;-72
2023/04/17 03:14:41;;;;;;;2.30;1.90;;;7.60;99.90;;;;;;5113112;28;20201;-74
2023/04/17 03:17:08;;;;;;;3.90;3.00;;;7.40;99.90;;;;;;5113617;28;20666;-74
2023/04/17 03:19:35;;;;;;;1.57;1.33;;;7.40;99.90;;;;;;5113193;28;20236;-73
2023/04/17 03:22:02;;;;;;;2.77;2.07;;;7.60;99.90;;;;;;5113553;28;20346;-74
2023/04/17 03:24:30;;;;;;;2.50;2.13;;;7.60;99.90;;;;;;5113364;28;20201;-73
2023/04/17 03:26:58;;;;;;;2.57;1.63;;;7.60;99.90;;;;;;5113546;28;20262;-73
2023/04/17 03:29:25;;;;;;;2.67;1.70;;;7.50;99.90;;;;;;5112957;28;20236;-74
2023/04/17 03:31:53;;;;;;;2.77;1.97;;;7.60;99.90;;;;;;5113580;28;20271;-74
2023/04/17 03:34:21;;;;;;;3.57;3.00;;;7.60;99.90;;;;;;5113675;28;20197;-74
2023/04/17 03:36:48;;;;;;;1.80;1.60;;;7.50;99.90;;;;;;5113069;28;20297;-74
2023/04/17 03:39:15;;;;;;;3.27;1.80;;;7.40;99.90;;;;;;5113392;28;20243;-73
2023/04/17 03:41:42;;;;;;;2.47;2.27;;;7.40;99.90;;;;;;5112355;28;20212;-73
2023/04/17 03:44:11;;;;;;;3.40;2.50;;;7.50;99.90;;;;;;5113116;28;20627;-73
2023/04/17 03:46:38;;;;;;;3.10;2.03;;;7.40;99.90;;;;;;5112701;28;20204;-73
2023/04/17 03:49:05;;;;;;;3.00;1.93;;;7.40;99.90;;;;;;5112142;27;20232;-72
2023/04/17 03:51:32;;;;;;;5.87;2.07;;;7.20;99.90;;;;;;5111593;27;20231;-73
2023/04/17 03:53:59;;;;;;;4.47;2.23;;;7.30;99.90;;;;;;5112964;28;20683;-72
2023/04/17 03:56:26;;;;;;;3.23;1.73;;;7.20;99.90;;;;;;5112081;28;20233;-72
2023/04/17 03:58:53;;;;;;;2.20;1.53;;;6.90;99.90;;;;;;5112994;28;20660;-73
2023/04/17 04:01:26;;;;;;;4.33;2.43;;;6.90;99.90;;;;;;5112615;28;20204;-72
2023/04/17 04:03:54;;;;;;;2.40;1.87;;;7.00;99.90;;;;;;5113018;28;20197;-73
2023/04/17 04:06:21;;;;;;;2.83;2.53;;;7.10;99.90;;;;;;5112990;28;20228;-73
2023/04/17 04:08:48;;;;;;;3.50;2.07;;;7.20;99.90;;;;;;5111986;28;20205;-73
2023/04/17 04:11:15;;;;;;;3.90;2.17;;;7.20;99.90;;;;;;5112007;28;20262;-73
2023/04/17 04:13:42;;;;;;;2.57;2.00;;;7.20;99.90;;;;;;5112130;28;20240;-73
2023/04/17 04:16:09;;;;;;;2.00;1.83;;;7.20;99.90;;;;;;5112238;28;20750;-73
2023/04/17 04:18:37;;;;;;;2.47;1.73;;;7.10;99.90;;;;;;5112110;28;20232;-73
2023/04/17 04:21:05;;;;;;;2.70;2.10;;;7.10;99.90;;;;;;5112558;28;20313;-73
2023/04/17 04:23:32;;;;;;;3.00;1.70;;;7.10;99.90;;;;;;5111855;28;20209;-73
2023/04/17 04:26:00;;;;;;;3.30;2.30;;;7.10;99.90;;;;;;5111876;28;20197;-73
2023/04/17 04:28:29;;;;;;;3.20;2.43;;;7.10;99.90;;;;;;5111472;28;20205;-73
2023/04/17 04:30:57;;;;;;;4.73;2.07;;;7.10;99.90;;;;;;5112085;28;20205;-73
2023/04/17 04:33:26;;;;;;;3.00;2.37;;;7.00;99.90;;;;;;5112517;28;20679;-73
2023/04/17 04:35:59;;;;;;;3.53;2.07;;;7.10;99.90;;;;;;5112130;28;20208;-73
2023/04/17 04:38:31;;;;;;;2.13;1.80;;;7.00;99.90;;;;;;5111601;28;20717;-73
2023/04/17 04:41:08;;;;;;;2.87;1.87;;;7.00;99.90;;;;;;5111708;28;20205;-73
2023/04/17 04:43:36;;;;;;;2.93;2.23;;;6.90;99.90;;;;;;5111196;28;20738;-73
2023/04/17 04:46:03;;;;;;;3.47;3.17;;;6.90;99.90;;;;;;5092231;28;20233;-73
2023/04/17 04:48:30;;;;;;;5.30;2.20;;;6.80;99.90;;;;;;5091242;28;20240;-73
2023/04/17 04:50:58;;;;;;;5.03;3.20;;;6.80;99.90;;;;;;5091325;28;20288;-73
2023/04/17 04:53:25;;;;;;;5.60;2.17;;;6.70;99.90;;;;;;5090590;28;20245;-73
2023/04/17 04:55:52;;;;;;;3.13;2.77;;;6.90;99.90;;;;;;5091625;28;20344;-72
2023/04/17 04:58:19;;;;;;;5.03;2.47;;;6.70;99.90;;;;;;5091192;28;20252;-75
2023/04/17 05:00:46;;;;;;;3.77;2.67;;;6.70;99.90;;;;;;5090989;28;20555;-74
2023/04/17 05:03:13;;;;;;;4.27;2.50;;;6.90;99.90;;;;;;5091169;28;20209;-74
2023/04/17 05:05:42;;;;;;;3.33;2.37;;;6.80;99.90;;;;;;5090722;28;20225;-74
2023/04/17 05:08:10;;;;;;;3.47;2.20;;;6.80;99.90;;;;;;5090898;28;20208;-74
2023/04/17 05:10:38;;;;;;;4.03;3.50;;;6.70;99.90;;;;;;5090745;28;20263;-74
2023/04/17 05:13:05;;;;;;;3.63;2.43;;;6.90;99.90;;;;;;5090752;28;20722;-75
2023/04/17 05:15:31;;;;;;;4.07;2.43;;;6.90;99.90;;;;;;5090665;28;20237;-74
2023/04/17 05:17:59;;;;;;;2.63;2.30;;;6.90;99.90;;;;;;5090777;28;20244;-73
2023/04/17 05:20:26;;;;;;;3.57;2.23;;;6.90;99.90;;;;;;5092300;28;20212;-74
2023/04/17 05:22:52;;;;;;;4.87;2.40;;;6.80;99.90;;;;;;5111365;28;20205;-74
2023/04/17 05:25:21;;;;;;;2.83;1.93;;;6.90;99.90;;;;;;5111859;28;20239;-75
2023/04/17 05:27:48;;;;;;;5.70;2.83;;;7.00;99.90;;;;;;5113796;28;20204;-83
2023/04/17 05:30:15;;;;;;;2.83;2.43;;;6.90;99.90;;;;;;5112902;28;20690;-80
2023/04/17 05:32:42;;;;;;;4.70;2.80;;;6.90;99.90;;;;;;5107990;28;20263;-79
2023/04/17 05:35:09;;;;;;;3.10;2.40;;;6.50;99.90;;;;;;5116245;27;20228;-87
2023/04/17 05:37:36;;;;;;;3.67;2.70;;;6.60;99.90;;;;;;5116829;27;20244;-79
2023/04/17 05:40:05;;;;;;;7.33;3.60;;;6.70;99.90;;;;;;5118105;28;20208;-77
2023/04/17 05:42:34;;;;;;;4.43;3.27;;;6.60;99.90;;;;;;5117636;28;20196;-76
2023/04/17 05:45:01;;;;;;;3.53;2.90;;;6.70;99.90;;;;;;5117562;27;20276;-76
2023/04/17 05:47:28;;;;;;;4.67;2.57;;;7.00;99.90;;;;;;5117452;28;20208;-75
2023/04/17 05:49:56;;;;;;;4.60;3.00;;;7.10;99.90;;;;;;5117657;28;20633;-74
2023/04/17 05:52:24;;;;;;;3.67;2.87;;;7.30;99.90;;;;;;5117483;28;20228;-76
2023/04/17 05:54:51;;;;;;;3.27;2.47;;;7.40;99.90;;;;;;5118143;28;20209;-76
2023/04/17 05:57:18;;;;;;;5.00;2.47;;;7.40;99.90;;;;;;5116252;28;20249;-79
2023/04/17 05:59:47;;;;;;;6.30;3.60;;;7.50;99.90;;;;;;5121512;27;20295;-88
2023/04/17 06:02:14;;;;;;;5.87;3.50;;;7.50;99.90;;;;;;5106509;28;20686;-76
2023/04/17 06:04:41;;;;;;;6.13;3.90;;;7.50;99.90;;;;;;5124375;27;20231;-77
2023/04/17 06:07:09;;;;;;;6.33;3.57;;;7.40;99.90;;;;;;5124015;27;20240;-78
2023/04/17 06:09:37;;;;;;;7.47;4.10;;;7.40;99.90;;;;;;5117129;27;20212;-79
2023/04/17 06:12:04;;;;;;;7.53;3.63;;;7.60;99.90;;;;;;5117355;28;20216;-77
2023/04/17 06:14:31;;;;;;;7.03;3.80;;;7.80;99.90;;;;;;5117042;28;20247;-77
2023/04/17 06:16:59;;;;;;;6.60;3.47;;;7.90;99.90;;;;;;5119451;27;20236;-78
2023/04/17 06:19:26;;;;;;;8.27;3.50;;;8.10;99.90;;;;;;5131264;27;20201;-77
2023/04/17 06:21:54;;;;;;;7.17;4.30;;;8.10;99.90;;;;;;5120966;27;20204;-79
2023/04/17 06:24:21;;;;;;;6.80;4.00;;;8.20;99.90;;;;;;5117236;27;20204;-85
2023/04/17 06:26:48;;;;;;;5.07;3.67;;;8.40;99.90;;;;;;5117068;28;20688;-83
2023/04/17 06:29:15;;;;;;;10.60;3.63;;;9.10;99.90;;;;;;5118948;28;20237;-84
2023/04/17 06:31:42;;;;;;;7.83;4.47;;;9.00;99.90;;;;;;5117408;28;20736;-78
2023/04/17 06:34:10;;;;;;;4.17;2.80;;;8.70;99.90;;;;;;5115473;27;20263;-75
2023/04/17 06:36:37;;;;;;;7.37;4.23;;;8.70;99.90;;;;;;5118372;27;20659;-73
2023/04/17 06:39:04;;;;;;;8.73;4.77;;;8.70;99.90;;;;;;5120441;27;20196;-73
2023/04/17 06:41:31;;;;;;;5.03;3.43;;;8.80;99.90;;;;;;5116983;28;20671;-74
2023/04/17 06:43:58;;;;;;;5.03;3.33;;;8.90;99.90;;;;;;5116212;28;20228;-76
2023/04/17 06:46:25;;;;;;;5.60;4.00;;;8.90;99.90;;;;;;5112331;28;20236;-76
2023/04/17 06:48:56;;;;;;;4.77;3.83;;;9.00;99.90;;;;;;5114488;28;20239;-77
2023/04/17 06:51:26;;;;;;;6.43;3.50;;;9.10;99.90;;;;;;5120435;27;20206;-73
2023/04/17 06:53:53;;;;;;;4.43;3.13;;;9.10;99.90;;;;;;5125272;27;20710;-74
2023/04/17 06:56:20;;;;;;;6.60;4.00;;;9.20;99.90;;;;;;5116079;27;20577;-77
2023/04/17 06:58:47;;;;;;;6.87;3.40;;;9.20;99.90;;;;;;5119022;27;20225;-75
2023/04/17 07:01:14;;;;;;;4.60;3.73;;;9.40;99.90;;;;;;5134701;27;20232;-75
2023/04/17 07:03:42;;;;;;;3.10;2.87;;;9.50;99.90;;;;;;5128523;27;20209;-75
2023/04/17 07:06:09;;;;;;;5.13;3.57;;;9.30;99.90;;;;;;5122239;27;20200;-76
2023/04/17 07:08:38;;;;;;;4.80;3.27;;;9.30;99.90;;;;;;5133721;27;20235;-77
2023/04/17 07:11:05;;;;;;;6.07;3.53;;;9.50;99.90;;;;;;5118945;27;20248;-73
2023/04/17 07:13:32;;;;;;;4.23;3.03;;;9.50;99.90;;;;;;5125407;27;20312;-76
2023/04/17 07:16:00;;;;;;;6.70;3.90;;;9.70;99.90;;;;;;5113575;28;20634;-77
2023/04/17 07:18:28;;;;;;;4.70;2.50;;;9.80;99.90;;;;;;5123959;27;20220;-76
2023/04/17 07:20:56;;;;;;;3.10;2.37;;;9.90;99.90;;;;;;5115345;27;20208;-75
2023/04/17 07:23:23;;;;;;;3.00;2.67;;;10.00;99.90;;;;;;5113379;28;20242;-76
2023/04/17 07:25:52;;;;;;;3.90;2.63;;;10.00;99.90;;;;;;5113261;28;20213;-77
2023/04/17 07:28:19;;;;;;;2.83;2.57;;;10.10;99.90;;;;;;5123181;27;20205;-78
2023/04/17 07:30:46;;;;;;;2.77;2.03;;;10.20;99.90;;;;;;5133036;27;20228;-78
2023/04/17 07:33:13;;;;;;;3.10;2.80;;;10.30;99.90;;;;;;5132924;27;20668;-76
2023/04/17 07:35:41;;;;;;;4.37;2.20;;;10.40;99.90;;;;;;5128738;27;20229;-74
2023/04/17 07:38:08;;;;;;;3.40;3.07;;;10.50;99.90;;;;;;5112856;27;20236;-74
2023/04/17 07:40:36;;;;;;;6.07;3.00;;;10.60;99.90;;;;;;5112518;28;20266;-76
2023/04/17 07:43:04;;;;;;;3.00;2.70;;;10.70;99.90;;;;;;5111179;28;20228;-76
2023/04/17 07:45:32;;;;;;;4.77;2.93;;;10.80;99.90;;;;;;5111975;28;20201;-76
2023/04/17 07:47:59;;;;;;;3.73;3.17;;;10.90;99.90;;;;;;5110832;28;20696;-77
2023/04/17 07:50:26;;;;;;;3.00;2.50;;;11.10;99.90;;;;;;5111013;28;20200;-74
2023/04/17 07:52:53;;;;;;;4.47;3.57;;;11.10;99.90;;;;;;5113335;28;20267;-72
2023/04/17 07:55:20;;;;;;;8.20;2.93;;;11.10;99.90;;;;;;5113196;28;20281;-73
2023/04/17 07:57:48;;;;;;;3.17;2.87;;;11.20;99.90;;;;;;5112212;28;20197;-73
2023/04/17 08:00:17;;;;;;;4.50;3.10;;;11.30;99.90;;;;;;5112762;28;20204;-78
2023/04/17 08:02:44;;;;;;;8.13;3.63;;;11.40;99.90;;;;;;5111997;28;20208;-69
2023/04/17 08:05:11;;;;;;;8.17;2.53;;;11.40;99.90;;;;;;5112098;28;20205;-74
2023/04/17 08:07:39;;;;;;;3.90;3.40;;;11.40;99.90;;;;;;5109764;27;20699;-73
2023/04/17 08:10:07;;;;;;;4.73;2.90;;;11.40;99.90;;;;;;5119393;27;20249;-74
2023/04/17 08:12:35;;;;;;;3.72;2.78;;;11.50;99.90;;;;;;5121507;27;20250;-76
2023/04/17 08:15:02;;;;;;;4.20;2.65;;;11.30;99.90;;;;;;5132327;27;20254;-73
2023/04/17 08:17:30;;;;;;;5.50;2.95;;;11.70;99.90;;;;;;5114485;27;20587;-70
2023/04/17 08:19:57;;;;;;;3.40;2.40;;;11.90;99.90;;;;;;5111911;27;20291;-74
2023/04/17 08:22:27;;;;;;;3.17;2.50;;;12.00;99.90;;;;;;5111587;28;20232;-71
2023/04/17 08:24:56;;;;;;;3.83;3.08;;;12.00;99.90;;;;;;5110833;28;20205;-71
2023/04/17 08:27:23;;;;;;;5.25;3.28;;;11.80;99.90;;;;;;5112321;28;20209;-78
2023/04/17 08:29:52;;;;;;;2.80;2.55;;;12.00;99.90;;;;;;5112168;28;20209;-72
2023/04/17 08:32:19;;;;;;;4.90;3.35;;;12.20;99.90;;;;;;5111593;28;20250;-73
2023/04/17 08:34:47;;;;;;;3.42;2.67;;;12.10;99.90;;;;;;5111002;28;20272;-81
2023/04/17 08:37:14;;;;;;;4.00;3.10;;;12.30;99.90;;;;;;5112213;28;20632;-75
2023/04/17 08:39:41;;;;;;;4.53;3.42;;;12.30;99.90;;;;;;5112068;28;20197;-74
2023/04/17 08:42:10;;;;;;;2.97;2.50;;;12.80;99.90;;;;;;5112252;28;20255;-76
2023/04/17 08:44:37;;;;;;;7.93;3.60;;;13.00;99.90;;;;;;5111551;28;20227;-73
2023/04/17 08:47:07;;;;;;;6.57;3.33;;;12.90;99.90;;;;;;5112489;27;20672;-78
2023/04/17 08:49:35;;;;;;;14.73;5.38;;;12.90;99.90;;;;;;5119630;27;20216;-76
2023/04/17 08:52:06;;;;;;;4.78;3.28;;;12.60;99.90;;;;;;5111355;28;20680;-74
2023/04/17 08:54:34;;;;;;;5.70;3.63;;;12.80;99.90;;;;;;5122187;27;20224;-74
2023/04/17 08:57:03;;;;;;;3.63;3.05;;;13.10;99.90;;;;;;5111085;28;20203;-75
2023/04/17 08:59:30;;;;;;;5.05;2.58;;;13.20;99.90;;;;;;5111302;28;20209;-79
2023/04/17 09:02:05;;;;;;;10.75;3.53;;;13.50;99.90;;;;;;5111048;28;20211;-75
2023/04/17 09:04:36;;;;;;;3.90;3.15;;;13.70;99.90;;;;;;5111344;28;20246;-74
2023/04/17 09:07:05;;;;;;;5.53;3.83;;;13.90;99.90;;;;;;5111786;28;20201;-75
2023/04/17 09:09:51;;;;;;;4.20;3.30;;;13.80;99.90;;;;;;5110621;28;20201;-75
2023/04/17 09:12:19;;;;;;;3.72;3.28;;;13.70;99.90;;;;;;5091061;28;20263;-70
2023/04/17 09:14:46;;;;;;;3.70;3.17;;;13.80;99.90;;;;;;5090757;28;20324;-68
2023/04/17 09:17:16;;;;;;;3.78;3.13;;;13.80;99.90;;;;;;5091135;28;20229;-69
2023/04/17 09:20:05;;;;;;;5.18;3.78;;;13.90;99.90;;;;;;5091129;28;20205;-69
2023/04/17 09:22:33;;;;;;;5.60;3.58;;;13.70;99.90;;;;;;5090742;28;20293;-69
2023/04/17 09:25:01;;;;;;;67.90;8.82;;;13.80;99.90;;;;;;5091068;28;20233;-71
2023/04/17 09:27:29;;;;;;;3.70;3.03;;;13.90;99.90;;;;;;5099970;28;20199;-72
2023/04/17 09:30:01;;;;;;;3.72;3.42;;;15.10;99.90;;;;;;5120380;28;20226;-72
2023/04/17 09:32:29;;;;;;;5.50;3.45;;;16.30;99.90;;;;;;5119404;28;20736;-72
2023/04/17 09:34:58;;;;;;;4.13;3.72;;;16.20;99.90;;;;;;5111143;28;20232;-79
2023/04/17 09:37:28;;;;;;;5.60;4.28;;;16.70;99.90;;;;;;5113585;28;20204;-73
2023/04/17 09:39:57;;;;;;;4.32;3.33;;;16.90;99.90;;;;;;5130287;28;20744;-75
2023/04/17 09:42:25;;;;;;;3.47;3.08;;;16.30;99.90;;;;;;5123732;28;20672;-76
2023/04/17 09:44:52;;;;;;;5.32;3.28;;;15.90;99.90;;;;;;5112179;28;20211;-78
2023/04/17 09:47:19;;;;;;;4.03;3.22;;;15.90;99.90;;;;;;5117311;28;20588;-77
2023/04/17 09:49:51;;;;;;;3.50;2.53;;;15.60;99.90;;;;;;5125847;28;20232;-78
2023/04/17 09:52:19;;;;;;;2.80;2.45;;;15.80;99.90;;;;;;5120175;28;20209;-76
2023/04/17 09:54:48;;;;;;;2.97;2.67;;;16.00;99.90;;;;;;5112384;28;20325;-82
2023/04/17 09:57:17;;;;;;;2.63;2.42;;;15.50;99.90;;;;;;5111315;28;20357;-75
2023/04/17 09:59:47;;;;;;;3.10;2.58;;;15.90;99.90;;;;;;5109543;28;20204;-72
2023/04/17 10:02:16;;;;;;;4.88;2.80;;;16.70;99.90;;;;;;5108321;28;20288;-73
2023/04/17 10:04:44;;;;;;;2.45;2.22;;;16.10;99.90;;;;;;5109179;28;20204;-74
2023/04/17 10:07:12;;;;;;;2.88;2.42;;;16.00;99.90;;;;;;5109835;28;20325;-74
2023/04/17 10:09:41;;;;;;;4.03;2.28;;;16.00;99.90;;;;;;5107225;28;20215;-75
2023/04/17 10:12:12;;;;;;;5.45;2.88;;;16.00;99.90;;;;;;5107671;28;20205;-73
2023/04/17 10:14:45;;;;;;;3.00;2.58;;;16.50;99.90;;;;;;5109939;28;20240;-74
2023/04/17 10:17:33;;;;;;;4.28;3.17;;;17.40;99.90;;;;;;5111073;28;20647;-77
2023/04/17 10:20:35;;;;;;;5.00;2.92;;;16.70;99.90;;;;;;5089540;28;20667;-74
2023/04/17 10:23:26;;;;;;;2.80;2.60;;;16.80;99.90;;;;;;5107532;28;20251;-73
2023/04/17 10:26:40;;;;;;;2.63;1.92;;;18.20;99.90;;;;;;5114696;28;20251;-74
2023/04/17 10:29:07;;;;;;;3.60;2.78;;;18.50;99.90;;;;;;5112937;28;20232;-74
2023/04/17 10:32:07;;;;;;;2.50;2.30;;;16.90;99.90;;;;;;5114358;28;20247;-74
2023/04/17 10:34:37;;;;;;;2.70;2.10;;;16.50;99.90;;;;;;5104139;28;20276;-77
2023/04/17 10:37:04;;;;;;;2.95;2.75;;;16.20;99.90;;;;;;5114127;28;20236;-78
2023/04/17 10:39:56;;;;;;;4.00;2.30;;;16.00;99.90;;;;;;5113993;28;20676;-80
2023/04/17 10:42:24;;;;;;;2.38;1.90;;;16.40;99.90;;;;;;5113986;28;20208;-76
2023/04/17 10:44:57;;;;;;;2.25;1.90;;;16.40;99.90;;;;;;5114410;28;20584;-75
2023/04/17 10:47:31;;;;;;;3.83;2.28;;;16.60;99.90;;;;;;5114511;28;20247;-75
2023/04/17 10:50:02;;;;;;;2.10;1.90;;;16.70;99.90;;;;;;5114295;28;20212;-76
2023/04/17 10:52:40;;;;;;;2.80;2.28;;;16.70;99.90;;;;;;5113918;28;20579;-73
2023/04/17 10:55:09;;;;;;;2.92;2.25;;;16.30;99.90;;;;;;5114117;28;20232;-73
2023/04/17 10:58:01;;;;;;;2.55;2.10;;;16.50;99.90;;;;;;5112716;28;20236;-72
2023/04/17 11:00:31;;;;;;;3.70;2.92;;;16.60;99.90;;;;;;5103417;28;20197;-74
2023/04/17 11:02:59;;;;;;;2.20;2.00;;;16.40;99.90;;;;;;5114228;27;20204;-72
2023/04/17 11:05:28;;;;;;;2.75;2.25;;;16.60;99.90;;;;;;5119012;27;20273;-73
2023/04/17 11:07:55;;;;;;;5.03;2.72;;;16.40;99.90;;;;;;5134552;27;20236;-79
2023/04/17 11:10:22;;;;;;;7.60;4.28;;;16.50;99.90;;;;;;5121469;27;20683;-75
2023/04/17 11:12:52;;;;;;;5.90;4.03;;;16.00;99.90;;;;;;5113219;28;20253;-75
2023/04/17 11:15:26;;;;;;;3.00;2.70;;;15.90;99.90;;;;;;5113661;28;20841;-74
2023/04/17 11:17:54;;;;;;;2.50;2.17;;;16.20;99.90;;;;;;5125532;27;20682;-76
2023/04/17 11:20:22;;;;;;;4.93;2.90;;;15.90;99.90;;;;;;5114843;28;20235;-76
2023/04/17 11:22:50;;;;;;;4.20;3.00;;;16.20;99.90;;;;;;5124159;27;20667;-73
2023/04/17 11:25:25;;;;;;;2.33;2.13;;;16.70;99.90;;;;;;5133568;27;20691;-76
2023/04/17 11:27:55;;;;;;;2.40;2.05;;;16.90;99.90;;;;;;5134184;27;20200;-80
2023/04/17 11:30:32;;;;;;;4.10;2.95;;;17.00;99.90;;;;;;5133522;27;20242;-80
2023/04/17 11:33:00;;;;;;;4.30;2.65;;;17.10;99.90;;;;;;5133338;27;20293;-74
2023/04/17 11:35:31;;;;;;;2.88;2.58;;;16.90;99.90;;;;;;5133389;27;20263;-78
2023/04/17 11:38:11;;;;;;;4.25;2.38;;;16.80;99.90;;;;;;5134368;27;20238;-75
2023/04/17 11:40:45;;;;;;;2.33;2.22;;;16.90;99.90;;;;;;5133360;27;20295;-80
2023/04/17 11:43:13;;;;;;;3.88;2.25;;;16.50;99.90;;;;;;5133831;27;20254;-78
2023/04/17 11:45:41;;;;;;;6.45;2.30;;;16.40;99.90;;;;;;5133319;27;20239;-79
2023/04/17 11:48:10;;;;;;;6.00;2.50;;;16.70;99.90;;;;;;5133503;27;20207;-80
2023/04/17 11:50:37;;;;;;;2.00;1.77;;;17.00;99.90;;;;;;5133488;27;20211;-78
2023/04/17 11:53:04;;;;;;;3.80;2.40;;;16.70;99.90;;;;;;5133946;27;20207;-78
2023/04/17 11:55:34;;;;;;;3.05;2.78;;;17.10;99.90;;;;;;5133754;27;20236;-85
2023/04/17 11:58:03;;;;;;;2.70;2.30;;;17.00;99.90;;;;;;5133883;27;20204;-78
2023/04/17 12:00:31;;;;;;;1.92;1.67;;;16.30;99.90;;;;;;5130014;27;20212;-77
2023/04/17 12:02:59;;;;;;;3.38;2.08;;;16.50;99.90;;;;;;5112653;28;20201;-75
2023/04/17 12:05:27;;;;;;;3.85;2.03;;;17.30;99.90;;;;;;5112580;28;20204;-74
2023/04/17 12:08:06;;;;;;;1.65;1.40;;;17.90;99.90;;;;;;5113016;28;20232;-74
2023/04/17 12:10:39;;;;;;;2.28;2.08;;;17.10;99.90;;;;;;5111887;28;20675;-74
2023/04/17 12:13:05;;;;;;;2.33;2.10;;;16.90;99.90;;;;;;5112333;28;20211;-76
2023/04/17 12:15:34;;;;;;;1.95;1.85;;;17.20;99.90;;;;;;5112122;28;20666;-75
2023/04/17 12:18:04;;;;;;;2.08;1.88;;;17.30;99.90;;;;;;5112709;28;20233;-75
2023/04/17 12:20:34;;;;;;;2.13;1.85;;;17.80;99.90;;;;;;5112409;28;20220;-76
2023/04/17 12:23:01;;;;;;;2.13;1.92;;;17.80;99.90;;;;;;5112255;28;20217;-77
2023/04/17 12:25:28;;;;;;;2.35;1.65;;;17.30;99.90;;;;;;5111794;28;20229;-78
2023/04/17 12:27:58;;;;;;;3.03;2.28;;;17.30;99.90;;;;;;5114349;28;20627;-75
2023/04/17 12:30:26;;;;;;;3.35;1.88;;;17.00;99.90;;;;;;5111019;28;20197;-73
2023/04/17 12:32:53;;;;;;;35.45;7.20;;;17.20;99.90;;;;;;5111657;28;20204;-74
2023/04/17 12:35:20;;;;;;;2.55;1.88;;;18.20;99.90;;;;;;5111684;28;20263;-74
2023/04/17 12:37:50;;;;;;;1.20;1.10;;;18.60;99.90;;;;;;5111250;28;20699;-74
2023/04/17 12:40:17;;;;;;;44.30;8.20;;;19.30;99.90;;;;;;5111624;28;20660;-72
2023/04/17 12:42:46;;;;;;;2.28;1.60;;;19.00;99.90;;;;;;5111490;28;20265;-73
2023/04/17 12:45:14;;;;;;;3.15;1.80;;;19.10;99.90;;;;;;5111577;28;20197;-75
2023/04/17 12:47:42;;;;;;;2.15;1.95;;;18.50;99.90;;;;;;5111743;28;20200;-80
2023/04/17 12:50:10;;;;;;;2.47;1.98;;;17.40;99.90;;;;;;5110599;28;20243;-75
2023/04/17 12:52:37;;;;;;;3.72;1.80;;;17.10;99.90;;;;;;5110618;28;20205;-73
2023/04/17 12:55:06;;;;;;;2.97;2.05;;;17.30;99.90;;;;;;5111945;28;20260;-73
2023/04/17 12:57:34;;;;;;;3.55;1.77;;;17.30;99.90;;;;;;5111492;28;20682;-72
2023/04/17 13:00:01;;;;;;;2.67;1.50;;;18.00;99.90;;;;;;5111534;28;20219;-75